createdAt,value
2023-02-12T00:00:43.861Z,58.03
2023-02-12T00:03:11.171Z,56.60
2023-02-12T00:05:38.800Z,56.93
2023-02-12T00:08:05.681Z,56.97
2023-02-12T00:10:32.307Z,56.17
2023-02-12T00:12:58.872Z,53.90
2023-02-12T00:15:25.497Z,57.10
2023-02-12T00:17:52.077Z,61.80
2023-02-12T00:20:21.800Z,53.93
2023-02-12T00:22:48.316Z,59.40
2023-02-12T00:25:15.011Z,54.63
2023-02-12T00:27:41.573Z,57.33
2023-02-12T00:30:08.668Z,51.07
2023-02-12T00:32:37.156Z,57.50
2023-02-12T00:35:04.198Z,53.00
2023-02-12T00:37:30.720Z,53.37
2023-02-12T00:39:57.290Z,50.67
2023-02-12T00:42:23.818Z,52.93
2023-02-12T00:44:50.357Z,53.53
2023-02-12T00:47:16.946Z,52.33
2023-02-12T00:49:43.529Z,50.10
2023-02-12T00:52:10.189Z,52.83
2023-02-12T00:54:37.006Z,50.33
2023-02-12T00:57:03.703Z,51.53
2023-02-12T00:59:30.512Z,59.53
2023-02-12T01:01:57.545Z,52.90
2023-02-12T01:04:24.365Z,61.23
2023-02-12T01:06:51.091Z,54.10
2023-02-12T01:09:17.687Z,57.07
2023-02-12T01:11:44.271Z,52.67
2023-02-12T01:14:10.857Z,54.17
2023-02-12T01:16:37.503Z,50.53
2023-02-12T01:19:04.794Z,48.80
2023-02-12T01:21:34.350Z,49.87
2023-02-12T01:24:02.062Z,48.17
2023-02-12T01:26:30.304Z,52.90
2023-02-12T01:29:01.325Z,48.87
2023-02-12T01:31:31.278Z,52.03
2023-02-12T01:33:59.779Z,57.93
2023-02-12T01:36:28.566Z,48.63
2023-02-12T01:38:57.808Z,57.33
2023-02-12T01:41:28.120Z,54.53
2023-02-12T01:44:16.389Z,43.87
2023-02-12T01:46:45.203Z,57.13
2023-02-12T01:49:39.812Z,54.77
2023-02-12T01:52:31.833Z,53.37
2023-02-12T01:55:01.517Z,49.90
2023-02-12T01:57:31.690Z,52.77
2023-02-12T02:00:00.323Z,52.83
2023-02-12T02:02:27.653Z,49.83
2023-02-12T02:04:59.237Z,48.73
2023-02-12T02:07:27.908Z,55.47
2023-02-12T02:09:55.374Z,49.23
2023-02-12T02:12:40.808Z,46.80
2023-02-12T02:15:08.991Z,53.03
2023-02-12T02:17:50.393Z,46.17
2023-02-12T02:20:55.491Z,50.23
2023-02-12T02:23:34.752Z,47.37
2023-02-12T02:26:19.932Z,50.87
2023-02-12T02:29:24.133Z,49.20
2023-02-12T02:32:01.319Z,47.87
2023-02-12T02:34:40.563Z,58.10
2023-02-12T02:37:24.377Z,50.27
2023-02-12T02:40:11.458Z,50.93
2023-02-12T02:42:48.392Z,49.13
2023-02-12T02:45:28.298Z,56.10
2023-02-12T02:48:10.433Z,52.20
2023-02-12T02:50:44.222Z,46.93
2023-02-12T02:53:19.731Z,52.00
2023-02-12T02:55:58.257Z,48.23
2023-02-12T02:58:35.904Z,45.97
2023-02-12T03:01:07.400Z,44.47
2023-02-12T03:04:01.755Z,53.73
2023-02-12T03:06:56.378Z,53.00
2023-02-12T03:09:29.036Z,46.07
2023-02-12T03:12:00.937Z,43.60
2023-02-12T03:14:36.994Z,46.13
2023-02-12T03:17:09.426Z,50.83
2023-02-12T03:19:54.965Z,57.10
2023-02-12T03:22:31.991Z,49.03
2023-02-12T03:25:13.962Z,45.17
2023-02-12T03:27:53.372Z,53.83
2023-02-12T03:30:21.877Z,46.50
2023-02-12T03:33:01.338Z,48.73
2023-02-12T03:35:41.847Z,45.37
2023-02-12T03:38:29.692Z,43.53
2023-02-12T03:41:20.623Z,52.50
2023-02-12T03:44:06.008Z,49.90
2023-02-12T03:47:01.051Z,49.60
2023-02-12T03:49:42.763Z,44.13
2023-02-12T03:52:09.353Z,44.20
2023-02-12T03:54:36.986Z,49.77
2023-02-12T03:57:09.662Z,46.67
2023-02-12T03:59:39.301Z,53.73
2023-02-12T04:02:06.873Z,48.97
2023-02-12T04:04:34.724Z,50.43
2023-02-12T04:07:01.596Z,47.60
2023-02-12T04:09:28.788Z,42.37
2023-02-12T04:12:20.497Z,51.00
2023-02-12T04:15:10.691Z,44.37
2023-02-12T04:18:08.413Z,51.90
2023-02-12T04:20:59.916Z,47.90
2023-02-12T04:23:50.229Z,50.23
2023-02-12T04:26:44.512Z,48.90
2023-02-12T04:29:35.893Z,49.93
2023-02-12T04:32:19.461Z,52.80
2023-02-12T04:35:01.804Z,48.70
2023-02-12T04:38:03.427Z,51.30
2023-02-12T04:40:30.616Z,47.50
2023-02-12T04:42:57.199Z,54.90
2023-02-12T04:45:33.205Z,49.90
2023-02-12T04:48:00.935Z,54.17
2023-02-12T04:50:41.911Z,54.33
2023-02-12T04:53:10.010Z,49.83
2023-02-12T04:55:37.003Z,51.70
2023-02-12T04:58:04.296Z,52.17
2023-02-12T05:00:30.872Z,44.43
2023-02-12T05:02:57.430Z,49.20
2023-02-12T05:05:24.130Z,50.63
2023-02-12T05:07:50.740Z,50.40
2023-02-12T05:10:17.420Z,48.60
2023-02-12T05:12:44.226Z,59.60
2023-02-12T05:15:11.026Z,57.07
2023-02-12T05:17:38.152Z,49.63
2023-02-12T05:20:05.894Z,49.73
2023-02-12T05:22:32.466Z,53.53
2023-02-12T05:24:59.024Z,46.73
2023-02-12T05:27:25.622Z,48.40
2023-02-12T05:29:52.210Z,50.70
2023-02-12T05:32:18.906Z,55.63
2023-02-12T05:34:45.529Z,48.90
2023-02-12T05:37:12.043Z,49.37
2023-02-12T05:39:38.732Z,58.27
2023-02-12T05:42:05.307Z,47.20
2023-02-12T05:44:31.881Z,52.73
2023-02-12T05:46:58.472Z,50.37
2023-02-12T05:49:25.066Z,49.03
2023-02-12T05:51:51.608Z,49.97
2023-02-12T05:54:18.175Z,44.80
2023-02-12T05:56:47.076Z,48.90
2023-02-12T05:59:19.500Z,48.37
2023-02-12T06:01:47.283Z,52.63
2023-02-12T06:04:17.530Z,50.50
2023-02-12T06:06:44.194Z,52.97
2023-02-12T06:09:12.240Z,48.90
2023-02-12T06:11:42.480Z,47.47
2023-02-12T06:14:13.058Z,46.50
2023-02-12T06:16:39.772Z,51.13
2023-02-12T06:19:06.951Z,46.23
2023-02-12T06:21:33.798Z,47.87
2023-02-12T06:24:00.678Z,45.70
2023-02-12T06:26:27.530Z,50.40
2023-02-12T06:28:54.283Z,53.07
2023-02-12T06:31:26.509Z,40.07
2023-02-12T06:33:54.371Z,48.70
2023-02-12T06:36:21.015Z,49.80
2023-02-12T06:38:48.421Z,53.17
2023-02-12T06:41:15.264Z,51.50
2023-02-12T06:43:42.135Z,50.40
2023-02-12T06:46:09.487Z,51.53
2023-02-12T06:48:36.107Z,55.67
2023-02-12T06:51:15.228Z,53.87
2023-02-12T06:53:42.717Z,52.07
2023-02-12T06:56:11.609Z,52.77
2023-02-12T06:58:42.735Z,52.13
2023-02-12T07:01:13.756Z,49.97
2023-02-12T07:03:41.935Z,54.70
2023-02-12T07:06:09.628Z,51.87
2023-02-12T07:08:36.837Z,46.73
2023-02-12T07:11:05.042Z,52.50
2023-02-12T07:13:34.566Z,47.90
2023-02-12T07:16:09.435Z,51.03
2023-02-12T07:18:36.694Z,58.83
2023-02-12T07:21:04.589Z,57.53
2023-02-12T07:23:31.767Z,49.90
2023-02-12T07:26:00.637Z,48.73
2023-02-12T07:28:28.105Z,49.23
2023-02-12T07:30:54.783Z,49.80
2023-02-12T07:33:21.386Z,48.50
2023-02-12T07:35:47.952Z,48.07
2023-02-12T07:38:14.500Z,50.80
2023-02-12T07:40:41.049Z,55.27
2023-02-12T07:43:07.605Z,51.17
2023-02-12T07:45:34.179Z,44.87
2023-02-12T07:48:00.710Z,53.23
2023-02-12T07:50:27.342Z,52.00
2023-02-12T07:52:54.410Z,59.47
2023-02-12T07:55:21.034Z,51.20
2023-02-12T07:57:47.575Z,50.73
2023-02-12T08:00:14.847Z,49.43
2023-02-12T08:02:41.453Z,52.20
2023-02-12T08:05:08.306Z,61.53
2023-02-12T08:07:34.958Z,52.30
2023-02-12T08:10:01.576Z,62.03
2023-02-12T08:12:28.120Z,50.73
2023-02-12T08:14:54.731Z,60.90
2023-02-12T08:17:21.265Z,52.50
2023-02-12T08:19:47.792Z,48.20
2023-02-12T08:22:14.406Z,50.03
2023-02-12T08:24:42.271Z,53.87
2023-02-12T08:27:08.879Z,55.60
2023-02-12T08:29:35.452Z,50.67
2023-02-12T08:32:03.958Z,51.67
2023-02-12T08:34:33.204Z,46.63
2023-02-12T08:37:00.258Z,47.60
2023-02-12T08:39:29.053Z,51.53
2023-02-12T08:41:57.297Z,51.90
2023-02-12T08:44:24.121Z,46.30
2023-02-12T08:46:52.619Z,45.30
2023-02-12T08:49:23.992Z,47.53
2023-02-12T08:51:53.491Z,50.33
2023-02-12T08:54:23.616Z,47.10
2023-02-12T08:56:54.003Z,43.83
2023-02-12T08:59:20.608Z,50.70
2023-02-12T09:01:51.856Z,46.43
2023-02-12T09:04:22.002Z,52.53
2023-02-12T09:06:49.935Z,43.17
2023-02-12T09:09:16.824Z,36.60
2023-02-12T09:11:44.620Z,44.00
2023-02-12T09:14:14.224Z,48.53
2023-02-12T09:16:41.638Z,42.33
2023-02-12T09:19:11.332Z,50.10
2023-02-12T09:21:37.962Z,38.20
2023-02-12T09:24:04.640Z,49.80
2023-02-12T09:26:31.612Z,43.07
2023-02-12T09:28:58.465Z,48.33
2023-02-12T09:31:28.001Z,44.73
2023-02-12T09:33:58.263Z,41.50
2023-02-12T09:36:25.646Z,43.57
2023-02-12T09:38:54.085Z,44.83
2023-02-12T09:41:29.320Z,37.80
2023-02-12T09:44:22.508Z,48.97
2023-02-12T09:46:54.667Z,49.97
2023-02-12T09:50:17.055Z,41.10
2023-02-12T09:52:44.294Z,43.27
2023-02-12T09:55:19.421Z,35.50
2023-02-12T09:57:46.691Z,36.77
2023-02-12T10:00:31.087Z,33.17
2023-02-12T10:03:04.007Z,31.00
2023-02-12T10:05:39.300Z,39.77
2023-02-12T10:08:24.852Z,32.20
2023-02-12T10:11:30.515Z,38.33
2023-02-12T10:14:29.957Z,38.20
2023-02-12T10:17:19.480Z,32.80
2023-02-12T10:20:21.246Z,32.60
2023-02-12T10:22:59.548Z,37.53
2023-02-12T10:25:44.347Z,35.70
2023-02-12T10:28:26.271Z,34.60
2023-02-12T10:31:05.745Z,34.57
2023-02-12T10:33:38.805Z,32.27
2023-02-12T10:36:33.142Z,36.40
2023-02-12T10:39:06.709Z,43.73
2023-02-12T10:41:39.357Z,28.87
2023-02-12T10:44:05.927Z,30.10
2023-02-12T10:46:32.580Z,32.33
2023-02-12T10:49:00.566Z,34.40
2023-02-12T10:51:55.752Z,31.20
2023-02-12T10:54:39.140Z,28.17
2023-02-12T10:57:14.209Z,32.90
2023-02-12T10:59:42.645Z,30.10
2023-02-12T11:02:22.549Z,30.30
2023-02-12T11:04:49.994Z,26.77
2023-02-12T11:07:17.302Z,29.83
2023-02-12T11:09:46.728Z,26.13
2023-02-12T11:12:34.499Z,27.70
2023-02-12T11:15:07.219Z,32.70
2023-02-12T11:17:42.066Z,29.87
2023-02-12T11:20:22.219Z,27.37
2023-02-12T11:22:58.119Z,32.07
2023-02-12T11:25:32.738Z,31.97
2023-02-12T11:28:15.843Z,30.03
2023-02-12T11:30:55.543Z,33.20
2023-02-12T11:33:34.644Z,28.07
2023-02-12T11:36:08.063Z,31.43
2023-02-12T11:38:47.616Z,29.13
2023-02-12T11:41:36.330Z,30.80
2023-02-12T11:44:12.729Z,34.10
2023-02-12T11:46:40.699Z,26.07
2023-02-12T11:49:09.270Z,26.83
2023-02-12T11:51:36.704Z,27.90
2023-02-12T11:54:06.139Z,23.93
2023-02-12T11:56:45.652Z,28.27
2023-02-12T11:59:27.455Z,32.43
2023-02-12T12:01:56.771Z,24.43
2023-02-12T12:04:27.506Z,26.70
2023-02-12T12:07:17.263Z,30.20
2023-02-12T12:09:49.175Z,26.33
2023-02-12T12:12:44.575Z,33.50
2023-02-12T12:15:40.127Z,28.73
2023-02-12T12:18:35.620Z,25.57
2023-02-12T12:21:19.782Z,22.97
2023-02-12T12:23:57.202Z,24.00
2023-02-12T12:26:34.256Z,58.37
2023-02-12T12:29:19.985Z,58.03
2023-02-12T12:31:50.579Z,50.83
2023-02-12T12:34:23.739Z,42.33
2023-02-12T12:37:09.241Z,28.97
2023-02-12T12:40:13.269Z,27.43
2023-02-12T12:43:04.081Z,27.17
2023-02-12T12:45:42.138Z,27.87
2023-02-12T12:48:08.647Z,24.87
2023-02-12T12:50:50.185Z,26.47
2023-02-12T12:53:45.098Z,34.50
2023-02-12T12:56:39.487Z,24.30
2023-02-12T12:59:21.443Z,28.93
2023-02-12T13:02:09.935Z,31.87
2023-02-12T13:05:18.376Z,29.23
2023-02-12T13:08:00.053Z,27.17
2023-02-12T13:10:34.191Z,29.97
2023-02-12T13:13:09.770Z,26.60
2023-02-12T13:15:50.728Z,27.03
2023-02-12T13:18:32.240Z,32.83
2023-02-12T13:21:10.777Z,27.40
2023-02-12T13:24:08.487Z,28.47
2023-02-12T13:26:58.284Z,30.53
2023-02-12T13:29:40.100Z,24.67
2023-02-12T13:32:16.614Z,27.77
2023-02-12T13:34:44.506Z,27.77
2023-02-12T13:37:19.160Z,29.07
2023-02-12T13:39:49.133Z,29.97
2023-02-12T13:42:45.430Z,27.17
2023-02-12T13:45:33.866Z,31.50
2023-02-12T13:48:24.953Z,25.80
2023-02-12T13:51:06.122Z,26.83
2023-02-12T13:53:44.854Z,30.47
2023-02-12T13:56:28.178Z,28.17
2023-02-12T13:59:00.323Z,31.87
2023-02-12T14:01:49.338Z,30.10
2023-02-12T14:04:25.488Z,27.57
2023-02-12T14:07:04.403Z,26.70
2023-02-12T14:09:37.573Z,29.23
2023-02-12T14:12:07.620Z,25.97
2023-02-12T14:14:47.272Z,30.90
2023-02-12T14:17:29.223Z,27.00
2023-02-12T14:19:57.169Z,31.93
2023-02-12T14:22:26.729Z,31.03
2023-02-12T14:24:58.081Z,39.73
2023-02-12T14:27:33.989Z,26.50
2023-02-12T14:30:09.958Z,29.77
2023-02-12T14:32:58.064Z,30.07
2023-02-12T14:35:34.801Z,32.50
2023-02-12T14:38:32.161Z,32.70
2023-02-12T14:41:53.058Z,31.00
2023-02-12T14:44:29.463Z,30.90
2023-02-12T14:47:05.083Z,31.37
2023-02-12T14:49:47.311Z,33.53
2023-02-12T14:52:13.894Z,32.33
2023-02-12T14:54:50.048Z,30.70
2023-02-12T14:57:33.565Z,32.57
2023-02-12T15:00:20.549Z,31.13
2023-02-12T15:03:13.582Z,29.47
2023-02-12T15:06:10.054Z,29.53
2023-02-12T15:08:51.224Z,27.00
2023-02-12T15:11:32.735Z,35.00
2023-02-12T15:14:27.045Z,32.87
2023-02-12T15:17:05.660Z,30.10
2023-02-12T15:19:59.809Z,28.07
2023-02-12T15:22:31.609Z,26.63
2023-02-12T15:25:17.089Z,27.23
2023-02-12T15:27:46.423Z,22.90
2023-02-12T15:30:26.449Z,27.47
2023-02-12T15:33:00.596Z,27.87
2023-02-12T15:35:33.305Z,25.77
2023-02-12T15:38:04.114Z,29.40
2023-02-12T15:40:31.654Z,24.73
2023-02-12T15:43:04.329Z,31.27
2023-02-12T15:45:35.839Z,25.17
2023-02-12T15:48:17.126Z,25.63
2023-02-12T15:51:10.601Z,27.97
2023-02-12T15:53:39.331Z,25.23
2023-02-12T15:56:12.970Z,28.83
2023-02-12T15:58:48.636Z,24.57
2023-02-12T16:01:18.473Z,30.40
2023-02-12T16:03:51.495Z,28.93
2023-02-12T16:06:19.922Z,26.13
2023-02-12T16:08:59.648Z,27.90
2023-02-12T16:11:28.321Z,34.60
2023-02-12T16:13:59.520Z,26.93
2023-02-12T16:16:30.015Z,26.53
2023-02-12T16:19:21.420Z,27.90
2023-02-12T16:21:51.985Z,27.50
2023-02-12T16:24:33.297Z,24.47
2023-02-12T16:27:08.855Z,25.90
2023-02-12T16:29:43.588Z,28.10
2023-02-12T16:32:35.020Z,26.37
2023-02-12T16:35:10.054Z,29.00
2023-02-12T16:37:36.608Z,25.63
2023-02-12T16:40:12.418Z,26.37
2023-02-12T16:42:47.997Z,27.20
2023-02-12T16:45:26.875Z,23.70
2023-02-12T16:48:24.352Z,29.03
2023-02-12T16:50:56.951Z,30.43
2023-02-12T16:53:37.043Z,26.53
2023-02-12T16:56:05.508Z,27.17
2023-02-12T16:58:32.529Z,31.77
2023-02-12T17:01:03.067Z,27.33
2023-02-12T17:03:30.035Z,29.97
2023-02-12T17:05:57.150Z,26.93
2023-02-12T17:08:24.859Z,28.30
2023-02-12T17:10:52.387Z,26.47
2023-02-12T17:13:20.722Z,27.47
2023-02-12T17:15:54.482Z,31.53
2023-02-12T17:18:22.191Z,24.37
2023-02-12T17:20:57.530Z,27.53
2023-02-12T17:23:24.927Z,34.57
2023-02-12T17:25:51.888Z,39.30
2023-02-12T17:28:18.828Z,36.17
2023-02-12T17:30:45.813Z,26.60
2023-02-12T17:33:12.527Z,28.33
2023-02-12T17:35:39.173Z,33.87
2023-02-12T17:38:06.660Z,26.67
2023-02-12T17:40:36.369Z,27.10
2023-02-12T17:43:04.071Z,28.30
2023-02-12T17:45:30.907Z,23.80
2023-02-12T17:47:57.893Z,27.00
2023-02-12T17:50:25.141Z,24.40
2023-02-12T17:52:52.009Z,28.90
2023-02-12T17:55:18.740Z,26.63
2023-02-12T17:57:45.320Z,28.50
2023-02-12T18:00:14.418Z,25.27
2023-02-12T18:02:41.101Z,25.50
2023-02-12T18:05:08.580Z,27.73
2023-02-12T18:07:36.466Z,32.10
2023-02-12T18:10:05.137Z,26.40
2023-02-12T18:12:33.363Z,25.00
2023-02-12T18:15:01.701Z,22.70
2023-02-12T18:17:28.669Z,25.73
2023-02-12T18:19:55.323Z,26.87
2023-02-12T18:22:22.654Z,29.07
2023-02-12T18:24:49.256Z,28.07
2023-02-12T18:27:15.870Z,33.50
2023-02-12T18:29:42.558Z,44.40
2023-02-12T18:32:14.384Z,51.43
2023-02-12T18:34:41.886Z,36.90
2023-02-12T18:37:09.646Z,37.83
2023-02-12T18:39:36.347Z,28.60
2023-02-12T18:42:04.122Z,35.50
2023-02-12T18:44:31.400Z,34.90
2023-02-12T18:46:59.904Z,31.97
2023-02-12T18:49:27.498Z,31.70
2023-02-12T18:51:54.250Z,35.50
2023-02-12T18:54:20.887Z,41.90
2023-02-12T18:56:50.904Z,38.70
2023-02-12T18:59:17.971Z,38.77
2023-02-12T19:01:46.280Z,45.90
2023-02-12T19:04:15.813Z,44.37
2023-02-12T19:06:45.212Z,35.20
2023-02-12T19:09:13.358Z,42.67
2023-02-12T19:11:39.913Z,39.60
2023-02-12T19:14:06.878Z,47.50
2023-02-12T19:16:33.732Z,47.43
2023-02-12T19:19:02.764Z,47.00
2023-02-12T19:21:30.197Z,48.10
2023-02-12T19:23:59.747Z,52.80
2023-02-12T19:26:28.755Z,42.93
2023-02-12T19:28:56.708Z,47.87
2023-02-12T19:31:29.225Z,40.63
2023-02-12T19:33:59.153Z,40.07
2023-02-12T19:36:28.995Z,39.77
2023-02-12T19:38:55.737Z,38.00
2023-02-12T19:41:25.280Z,37.87
2023-02-12T19:44:00.452Z,34.27
2023-02-12T19:46:29.668Z,44.57
2023-02-12T19:48:59.098Z,39.73
2023-02-12T19:51:26.634Z,44.10
2023-02-12T19:53:53.610Z,48.13
2023-02-12T19:56:20.242Z,43.03
2023-02-12T19:58:46.847Z,57.13
2023-02-12T20:01:16.317Z,45.13
2023-02-12T20:03:43.582Z,47.20
2023-02-12T20:06:15.028Z,40.90
2023-02-12T20:08:43.086Z,44.33
2023-02-12T20:11:13.585Z,46.00
2023-02-12T20:13:40.761Z,44.70
2023-02-12T20:16:11.086Z,47.70
2023-02-12T20:18:38.876Z,46.40
2023-02-12T20:21:13.019Z,48.67
2023-02-12T20:23:39.711Z,51.87
2023-02-12T20:26:08.284Z,44.57
2023-02-12T20:28:36.111Z,47.47
2023-02-12T20:31:15.371Z,49.67
2023-02-12T20:33:42.871Z,43.97
2023-02-12T20:36:11.596Z,51.23
2023-02-12T20:38:39.867Z,45.83
2023-02-12T20:41:08.381Z,46.53
2023-02-12T20:43:35.691Z,42.10
2023-02-12T20:46:10.968Z,45.77
2023-02-12T20:48:38.095Z,47.90
2023-02-12T20:51:11.016Z,44.30
2023-02-12T20:53:38.066Z,44.90
2023-02-12T20:56:10.299Z,50.43
2023-02-12T20:58:38.746Z,48.37
2023-02-12T21:01:10.670Z,50.43
2023-02-12T21:03:37.473Z,46.73
2023-02-12T21:06:05.083Z,50.67
2023-02-12T21:08:31.731Z,44.10
2023-02-12T21:11:04.577Z,46.53
2023-02-12T21:13:31.261Z,48.93
2023-02-12T21:16:09.482Z,47.97
2023-02-12T21:18:36.402Z,47.80
2023-02-12T21:21:08.465Z,50.50
2023-02-12T21:23:37.952Z,48.43
2023-02-12T21:26:10.368Z,52.67
2023-02-12T21:28:37.286Z,52.33
2023-02-12T21:31:15.646Z,44.07
2023-02-12T21:33:43.742Z,48.33
2023-02-12T21:36:13.162Z,43.47
2023-02-12T21:38:41.556Z,47.30
2023-02-12T21:41:17.580Z,48.90
2023-02-12T21:43:46.730Z,44.20
2023-02-12T21:46:18.258Z,49.13
2023-02-12T21:48:45.456Z,48.90
2023-02-12T21:51:32.761Z,47.43
2023-02-12T21:54:03.515Z,44.40
2023-02-12T21:56:30.611Z,45.83
2023-02-12T21:58:58.954Z,46.87
2023-02-12T22:01:28.118Z,46.47
2023-02-12T22:03:55.171Z,41.57
2023-02-12T22:06:24.507Z,39.53
2023-02-12T22:08:52.322Z,41.40
2023-02-12T22:11:20.154Z,36.10
2023-02-12T22:13:46.845Z,39.57
2023-02-12T22:16:16.405Z,38.77
2023-02-12T22:18:43.523Z,38.00
2023-02-12T22:21:13.456Z,34.80
2023-02-12T22:23:41.070Z,38.60
2023-02-12T22:26:13.349Z,35.80
2023-02-12T22:28:48.502Z,36.20
2023-02-12T22:31:19.558Z,39.30
2023-02-12T22:33:47.013Z,32.33
2023-02-12T22:36:13.653Z,37.70
2023-02-12T22:38:40.961Z,36.03
2023-02-12T22:41:09.274Z,38.63
2023-02-12T22:43:41.276Z,40.13
2023-02-12T22:46:09.753Z,34.07
2023-02-12T22:48:36.903Z,41.43
2023-02-12T22:51:14.978Z,36.87
2023-02-12T22:53:41.680Z,39.03
2023-02-12T22:56:08.932Z,36.43
2023-02-12T22:58:36.953Z,39.07
2023-02-12T23:01:07.919Z,39.80
2023-02-12T23:03:37.181Z,30.63
2023-02-12T23:06:05.935Z,30.63
2023-02-12T23:08:33.574Z,37.43
2023-02-12T23:11:00.683Z,37.37
2023-02-12T23:13:29.898Z,34.00
2023-02-12T23:15:57.327Z,31.50
2023-02-12T23:18:24.331Z,31.40
2023-02-12T23:20:52.033Z,31.63
2023-02-12T23:23:19.622Z,31.90
2023-02-12T23:25:46.374Z,39.30
2023-02-12T23:28:13.428Z,37.13
2023-02-12T23:30:40.180Z,33.13
2023-02-12T23:33:06.856Z,38.47
2023-02-12T23:35:33.416Z,31.80
2023-02-12T23:38:00.105Z,29.70
2023-02-12T23:40:26.814Z,32.13
2023-02-12T23:42:53.384Z,37.63
2023-02-12T23:45:19.982Z,37.07
2023-02-12T23:47:46.527Z,33.33
2023-02-12T23:50:13.154Z,34.60
2023-02-12T23:52:40.297Z,34.20
2023-02-12T23:55:07.270Z,34.00
2023-02-12T23:57:33.925Z,38.53
